Time;durP1;ratioP1;P1;durP2;ratioP2;P2;SDS_P1;SDS_P2;PMS_P1;PMS_P2;Temp;Humidity;BMP_temperature;BMP_pressure;BME280_temperature;BME280_humidity;BME280_pressure;Samples;Min_cycle;Max_cycle;Signal;HPM_P1;HPM_P2
2022/11/07 00:00:20;;;;;;;0.00;0.00;;;9.40;84.80;;;;;;4958485;28;20058;-70
2022/11/07 00:03:04;;;;;;;0.03;0.03;;;9.40;86.10;;;;;;4941605;29;20428;-70
2022/11/07 00:05:42;;;;;;;0.00;0.00;;;9.40;86.40;;;;;;4958512;29;20034;-70
2022/11/07 00:08:17;;;;;;;0.03;0.03;;;9.40;85.20;;;;;;4941388;29;20063;-70
2022/11/07 00:14:18;;;;;;;0.03;0.03;;;9.40;85.40;;;;;;4958505;29;20034;-70
2022/11/07 00:16:52;;;;;;;0.00;0.00;;;9.40;86.40;;;;;;4958343;29;20063;-70
2022/11/07 00:19:27;;;;;;;0.00;0.00;;;9.50;84.60;;;;;;4956740;28;20055;-70
2022/11/07 00:21:53;;;;;;;0.10;0.10;;;9.50;84.10;;;;;;4958357;29;20086;-70
2022/11/07 00:24:36;;;;;;;0.03;0.03;;;9.60;82.20;;;;;;4958090;29;20483;-70
2022/11/07 00:27:11;;;;;;;0.20;0.20;;;9.60;81.30;;;;;;4958359;29;20035;-70
2022/11/07 00:29:46;;;;;;;0.20;0.20;;;9.70;81.60;;;;;;4958133;28;20047;-70
2022/11/07 00:32:12;;;;;;;0.00;0.00;;;9.80;82.60;;;;;;4941253;29;20089;-70
2022/11/07 00:34:56;;;;;;;0.73;0.20;;;9.80;83.40;;;;;;4958315;29;20452;-70
2022/11/07 00:37:31;;;;;;;0.00;0.00;;;9.90;83.40;;;;;;4958226;29;20078;-70
2022/11/07 00:40:06;;;;;;;0.00;0.00;;;9.80;84.50;;;;;;4941270;29;20031;-70
2022/11/07 00:42:41;;;;;;;0.00;0.00;;;9.80;83.20;;;;;;4941264;29;20332;-70
2022/11/07 00:45:16;;;;;;;0.30;0.15;;;9.70;83.90;;;;;;4958131;29;20114;-70
2022/11/07 00:47:51;;;;;;;0.03;0.03;;;9.60;84.40;;;;;;4958138;29;20335;-70
2022/11/07 00:53:54;;;;;;;1.85;0.20;;;9.60;85.70;;;;;;4958424;29;20066;-70
2022/11/07 00:56:29;;;;;;;0.00;0.00;;;9.70;85.30;;;;;;4957903;29;20034;-70
2022/11/07 00:59:04;;;;;;;0.00;0.00;;;9.60;86.30;;;;;;4957961;28;20031;-70
2022/11/07 01:01:32;;;;;;;0.10;0.10;;;9.60;85.90;;;;;;4957984;29;20035;-70
2022/11/07 01:07:12;;;;;;;0.38;0.35;;;9.70;83.10;;;;;;4958169;29;20054;-70
2022/11/07 01:09:48;;;;;;;0.30;0.20;;;9.80;81.10;;;;;;4940749;29;20054;-70
2022/11/07 01:12:13;;;;;;;0.10;0.10;;;9.90;80.30;;;;;;4957966;29;20027;-70
2022/11/07 01:14:57;;;;;;;0.00;0.00;;;10.00;80.40;;;;;;4957882;29;20030;-70
2022/11/07 01:17:32;;;;;;;0.00;0.00;;;10.00;81.50;;;;;;4957815;29;20091;-70
2022/11/07 01:20:22;;;;;;;0.15;0.10;;;9.90;83.60;;;;;;4957125;28;20055;-70
2022/11/07 01:23:38;;;;;;;0.10;0.10;;;9.80;84.60;;;;;;4957899;29;20046;-70
2022/11/07 01:26:13;;;;;;;0.00;0.00;;;9.70;84.00;;;;;;4957724;29;20033;-70
2022/11/07 01:28:48;;;;;;;0.38;0.38;;;9.70;84.00;;;;;;4957671;29;20020;-70
2022/11/07 01:34:45;;;;;;;0.40;0.15;;;9.70;83.40;;;;;;4957731;29;20030;-70
2022/11/07 01:37:20;;;;;;;0.35;0.20;;;9.70;84.50;;;;;;4959305;28;20106;-70
2022/11/07 01:43:09;;;;;;;0.00;0.00;;;9.60;86.00;;;;;;4961381;29;20094;-70
2022/11/07 01:45:44;;;;;;;0.25;0.25;;;9.60;86.60;;;;;;4943761;29;20415;-70
2022/11/07 01:48:19;;;;;;;0.77;0.32;;;9.60;86.80;;;;;;4961032;29;20059;-70
2022/11/07 01:50:45;;;;;;;0.25;0.10;;;9.50;86.80;;;;;;4943845;29;20110;-70
2022/11/07 01:53:19;;;;;;;0.28;0.20;;;9.30;87.10;;;;;;4960728;29;20396;-70
2022/11/07 01:55:54;;;;;;;0.10;0.10;;;9.10;87.50;;;;;;4960748;29;20035;-70
2022/11/07 01:58:30;;;;;;;0.10;0.10;;;8.90;87.40;;;;;;4960848;29;20058;-70
2022/11/07 02:00:55;;;;;;;0.10;0.10;;;8.80;88.10;;;;;;4943601;29;20442;-70
2022/11/07 02:03:37;;;;;;;0.30;0.20;;;8.80;89.20;;;;;;4943597;29;20031;-70
2022/11/07 02:06:23;;;;;;;0.38;0.10;;;8.80;89.00;;;;;;4960608;29;20027;-70
2022/11/07 02:08:59;;;;;;;0.20;0.20;;;8.80;89.50;;;;;;4943380;29;20035;-70
2022/11/07 02:11:25;;;;;;;0.45;0.10;;;8.80;89.70;;;;;;4960489;29;20709;-70
2022/11/07 02:13:59;;;;;;;1.40;0.10;;;8.90;90.00;;;;;;4943470;29;20027;-70
2022/11/07 02:16:35;;;;;;;0.20;0.15;;;9.00;88.40;;;;;;4960394;29;20031;-70
2022/11/07 02:26:12;;;;;;;0.03;0.03;;;9.00;86.40;;;;;;4960647;29;20075;-70
2022/11/07 02:28:48;;;;;;;0.20;0.13;;;8.90;87.60;;;;;;4960101;29;20031;-70
2022/11/07 02:31:13;;;;;;;0.20;0.20;;;8.80;88.20;;;;;;4960002;28;20040;-70
2022/11/07 02:33:48;;;;;;;1.65;0.30;;;8.80;88.10;;;;;;4943227;29;20042;-70
2022/11/07 02:36:24;;;;;;;0.65;0.60;;;8.70;87.30;;;;;;4960123;29;20038;-70
2022/11/07 02:38:59;;;;;;;0.22;0.22;;;8.70;87.90;;;;;;4960028;29;20024;-70
2022/11/07 02:41:30;;;;;;;0.00;0.00;;;8.50;89.00;;;;;;4960032;29;20027;-70
2022/11/07 02:44:10;;;;;;;0.32;0.32;;;8.40;89.00;;;;;;4959901;29;20020;-70
2022/11/07 02:46:45;;;;;;;0.05;0.00;;;8.20;88.70;;;;;;4959815;29;20027;-70
2022/11/07 02:49:20;;;;;;;0.10;0.10;;;8.10;89.10;;;;;;4959390;28;20115;-70
2022/11/07 02:51:45;;;;;;;0.05;0.05;;;7.90;89.40;;;;;;4942751;29;20122;-70
2022/11/07 02:54:23;;;;;;;0.20;0.20;;;7.90;89.60;;;;;;4942923;29;20077;-70
2022/11/07 02:56:58;;;;;;;0.00;0.00;;;7.80;89.80;;;;;;4959449;29;20031;-70
2022/11/07 03:02:45;;;;;;;0.70;0.38;;;7.70;90.20;;;;;;4959963;29;20034;-70
2022/11/07 03:05:23;;;;;;;0.55;0.28;;;7.70;90.30;;;;;;4959476;29;20031;-70
2022/11/07 03:07:58;;;;;;;0.80;0.28;;;7.70;90.70;;;;;;4959439;29;20031;-70
2022/11/07 03:10:23;;;;;;;0.10;0.10;;;7.80;90.60;;;;;;4942104;29;20423;-70
2022/11/07 03:12:58;;;;;;;0.40;0.30;;;7.70;90.50;;;;;;4959232;29;20031;-70
2022/11/07 03:15:33;;;;;;;0.10;0.10;;;7.70;90.70;;;;;;4959271;29;20038;-70
2022/11/07 03:18:08;;;;;;;0.17;0.15;;;7.60;90.60;;;;;;4959303;29;20024;-70
2022/11/07 03:20:33;;;;;;;0.05;0.05;;;7.60;90.50;;;;;;4959115;28;20035;-70
2022/11/07 03:24:04;;;;;;;0.03;0.03;;;7.50;89.90;;;;;;4958789;29;20046;-70
2022/11/07 03:27:30;;;;;;;0.20;0.17;;;7.40;90.00;;;;;;4959223;29;20412;-70
2022/11/07 03:30:21;;;;;;;0.20;0.20;;;7.40;89.90;;;;;;4958967;28;20070;-70
2022/11/07 03:32:56;;;;;;;0.00;0.00;;;7.30;89.70;;;;;;4959004;29;20035;-70
2022/11/07 03:35:31;;;;;;;0.03;0.03;;;7.30;89.90;;;;;;4958973;29;20420;-70
2022/11/07 03:38:06;;;;;;;0.10;0.10;;;7.20;90.40;;;;;;4959005;29;20024;-70
2022/11/07 03:44:02;;;;;;;0.22;0.10;;;7.30;89.50;;;;;;4959104;29;20050;-70
2022/11/07 03:46:37;;;;;;;0.10;0.10;;;7.20;90.50;;;;;;4958770;29;20483;-70
2022/11/07 03:49:12;;;;;;;0.10;0.10;;;7.30;90.60;;;;;;4958619;28;20038;-70
2022/11/07 03:51:38;;;;;;;0.00;0.00;;;7.40;90.00;;;;;;4958818;29;20027;-70
2022/11/07 03:54:12;;;;;;;0.05;0.05;;;7.40;90.00;;;;;;4958639;29;20024;-70
2022/11/07 03:56:47;;;;;;;0.08;0.08;;;7.40;89.70;;;;;;4941654;29;20028;-70
2022/11/07 03:59:22;;;;;;;0.00;0.00;;;7.40;90.00;;;;;;4958032;28;20086;-70
2022/11/07 04:01:48;;;;;;;0.00;0.00;;;7.50;89.90;;;;;;4958652;29;20035;-70
2022/11/07 04:04:32;;;;;;;0.10;0.10;;;7.40;89.40;;;;;;4958572;29;20034;-70
2022/11/07 04:07:07;;;;;;;0.10;0.10;;;7.40;88.70;;;;;;4958481;29;20032;-70
2022/11/07 04:09:41;;;;;;;0.22;0.20;;;7.40;88.00;;;;;;4958418;28;20061;-69
2022/11/07 04:17:55;;;;;;;0.10;0.10;;;7.20;88.00;;;;;;4958640;29;20054;-70
2022/11/07 04:20:21;;;;;;;0.10;0.10;;;7.20;88.30;;;;;;4958291;28;20028;-70
2022/11/07 04:23:04;;;;;;;0.68;0.28;;;7.20;89.00;;;;;;4957972;28;20059;-70
2022/11/07 04:31:45;;;;;;;0.10;0.10;;;7.10;88.50;;;;;;4958671;29;20380;-70
2022/11/07 04:34:20;;;;;;;0.00;0.00;;;7.10;88.10;;;;;;4925309;29;20035;-70
2022/11/07 04:36:55;;;;;;;0.00;0.00;;;7.10;88.50;;;;;;4958275;29;20028;-70
2022/11/07 04:42:43;;;;;;;0.00;0.00;;;7.20;87.90;;;;;;4958518;29;20026;-70
2022/11/07 04:45:18;;;;;;;0.10;0.10;;;7.40;88.00;;;;;;4958080;29;20412;-70
2022/11/07 04:47:53;;;;;;;0.10;0.10;;;7.40;87.40;;;;;;4958064;29;20035;-70
2022/11/07 04:53:52;;;;;;;0.00;0.00;;;7.30;88.60;;;;;;4958383;29;20030;-70
2022/11/07 04:56:30;;;;;;;0.28;0.20;;;7.30;89.50;;;;;;4958107;29;20023;-70
2022/11/07 05:02:17;;;;;;;0.00;0.00;;;7.30;89.00;;;;;;4958304;29;20030;-70
2022/11/07 05:04:52;;;;;;;0.17;0.17;;;7.30;89.10;;;;;;4957864;29;20031;-70
2022/11/07 05:07:27;;;;;;;0.32;0.20;;;7.30;89.50;;;;;;4940918;29;20500;-70
2022/11/07 05:10:03;;;;;;;0.38;0.13;;;7.20;91.10;;;;;;4957752;28;20037;-70
2022/11/07 05:12:38;;;;;;;;;;;7.10;92.00;;;;;;4961821;29;20032;-70
2022/11/07 05:15:13;;;;;;;0.00;0.00;;;7.10;91.60;;;;;;4961553;29;19921;-70
2022/11/07 05:17:48;;;;;;;0.43;0.20;;;7.10;90.40;;;;;;4961516;29;20042;-70
2022/11/07 05:20:35;;;;;;;0.10;0.10;;;7.10;89.70;;;;;;4961325;28;20269;-70
2022/11/07 05:24:00;;;;;;;0.00;0.00;;;7.20;89.50;;;;;;4961136;28;20047;-70
2022/11/07 05:26:51;;;;;;;0.00;0.00;;;7.10;89.10;;;;;;4961269;29;20035;-70
2022/11/07 05:32:40;;;;;;;0.30;0.20;;;7.00;90.90;;;;;;4961399;29;20082;-69
2022/11/07 05:35:14;;;;;;;0.03;0.03;;;6.90;92.00;;;;;;4961124;29;20035;-70
2022/11/07 05:37:49;;;;;;;0.08;0.08;;;6.90;92.40;;;;;;4961012;29;20102;-70
2022/11/07 05:43:49;;;;;;;0.00;0.00;;;6.90;92.10;;;;;;4961533;29;20372;-69
2022/11/07 05:46:24;;;;;;;0.00;0.00;;;7.00;91.20;;;;;;4961034;29;20031;-70
2022/11/07 05:49:00;;;;;;;0.10;0.10;;;7.00;90.90;;;;;;4961029;29;20051;-70
2022/11/07 05:51:26;;;;;;;;;;;7.00;90.60;;;;;;4961273;29;20082;-70
2022/11/07 05:54:10;;;;;;;0.00;0.00;;;6.90;91.00;;;;;;4960941;29;20303;-70
2022/11/07 05:56:45;;;;;;;1.55;0.40;;;6.80;91.40;;;;;;4960857;29;20070;-69
2022/11/07 05:59:19;;;;;;;0.08;0.08;;;6.80;91.90;;;;;;4960828;28;20031;-69
2022/11/07 06:01:45;;;;;;;0.20;0.20;;;6.80;91.80;;;;;;4960718;29;20033;-70
2022/11/07 06:04:29;;;;;;;0.17;0.10;;;6.90;90.80;;;;;;4960773;29;20106;-70
2022/11/07 06:07:04;;;;;;;0.10;0.10;;;7.00;91.40;;;;;;4960356;29;20491;-70
2022/11/07 06:13:13;;;;;;;0.47;0.20;;;7.00;90.70;;;;;;4961062;29;20079;-69
2022/11/07 06:15:48;;;;;;;0.10;0.10;;;6.90;92.50;;;;;;4960252;29;20027;-70
2022/11/07 06:18:23;;;;;;;0.00;0.00;;;6.90;92.50;;;;;;4960454;29;20368;-69
2022/11/07 06:24:20;;;;;;;0.10;0.10;;;7.10;92.10;;;;;;4959288;28;20125;-69
2022/11/07 06:26:55;;;;;;;0.55;0.50;;;7.20;92.10;;;;;;4943140;29;20054;-70
2022/11/07 06:29:29;;;;;;;0.00;0.00;;;7.30;92.20;;;;;;4960391;28;20035;-70
2022/11/07 06:31:55;;;;;;;0.10;0.05;;;7.40;92.50;;;;;;4960125;29;20028;-70
2022/11/07 06:34:36;;;;;;;0.52;0.30;;;7.60;92.10;;;;;;4960039;29;20027;-70
2022/11/07 06:37:11;;;;;;;0.15;0.13;;;7.70;91.80;;;;;;4959883;29;20110;-70
2022/11/07 06:39:46;;;;;;;0.45;0.40;;;7.90;90.10;;;;;;4960254;28;20316;-70
2022/11/07 06:42:12;;;;;;;0.00;0.00;;;8.10;91.00;;;;;;4960007;29;20035;-70
2022/11/07 06:44:56;;;;;;;0.13;0.10;;;8.20;90.90;;;;;;4960016;29;20030;-70
2022/11/07 06:47:31;;;;;;;0.22;0.20;;;8.30;89.40;;;;;;4959812;29;20335;-70
2022/11/07 06:50:06;;;;;;;0.43;0.32;;;8.50;87.60;;;;;;4959705;28;20032;-70
2022/11/07 06:52:41;;;;;;;0.08;0.08;;;8.60;85.90;;;;;;4959813;29;20103;-70
2022/11/07 06:55:16;;;;;;;4.68;0.35;;;8.70;86.70;;;;;;4959756;29;20027;-70
2022/11/07 06:57:51;;;;;;;1.77;0.30;;;8.80;87.20;;;;;;4960022;29;20039;-70
2022/11/07 07:03:39;;;;;;;0.10;0.10;;;9.00;85.80;;;;;;4959865;29;20074;-70
2022/11/07 07:06:15;;;;;;;0.05;0.05;;;9.10;85.10;;;;;;4959564;29;20371;-70
2022/11/07 07:08:50;;;;;;;;;;;9.10;86.50;;;;;;4959881;29;20035;-70
2022/11/07 07:11:16;;;;;;;0.32;0.30;;;9.20;86.00;;;;;;4959257;28;19980;-70
2022/11/07 07:13:51;;;;;;;0.20;0.20;;;9.30;85.50;;;;;;4959336;29;20028;-70
2022/11/07 07:16:26;;;;;;;0.25;0.22;;;9.40;86.60;;;;;;4959306;29;20332;-70
2022/11/07 07:19:02;;;;;;;0.20;0.20;;;9.60;87.00;;;;;;4942392;29;20031;-70
2022/11/07 07:21:28;;;;;;;0.25;0.22;;;9.70;85.30;;;;;;4959330;29;20038;-70
2022/11/07 07:24:19;;;;;;;0.22;0.15;;;9.80;84.30;;;;;;4958842;28;20113;-70
2022/11/07 07:26:54;;;;;;;0.10;0.10;;;9.80;84.70;;;;;;4958936;29;20110;-70
2022/11/07 07:32:41;;;;;;;0.05;0.05;;;9.90;82.90;;;;;;4959434;29;20441;-70
2022/11/07 07:35:17;;;;;;;0.20;0.10;;;10.00;84.30;;;;;;4958946;28;20027;-70
2022/11/07 07:37:55;;;;;;;0.10;0.10;;;10.00;84.00;;;;;;4959064;29;20031;-70
2022/11/07 07:40:21;;;;;;;0.15;0.10;;;10.00;84.60;;;;;;4958882;28;20091;-70
2022/11/07 07:43:05;;;;;;;0.55;0.22;;;10.10;84.70;;;;;;4942171;29;20053;-70
2022/11/07 07:45:39;;;;;;;0.10;0.10;;;10.10;85.40;;;;;;4958815;29;20587;-70
2022/11/07 07:48:14;;;;;;;3.08;0.52;;;10.20;85.60;;;;;;4958855;29;20027;-70
2022/11/07 07:54:14;;;;;;;0.10;0.10;;;10.20;84.80;;;;;;4959073;29;20430;-70
2022/11/07 07:56:49;;;;;;;0.20;0.20;;;10.30;83.10;;;;;;4958739;29;20023;-70
2022/11/07 07:59:24;;;;;;;0.35;0.30;;;10.30;83.10;;;;;;4958897;28;20323;-70
2022/11/07 08:01:49;;;;;;;0.10;0.10;;;10.40;83.20;;;;;;4958661;29;20042;-70
2022/11/07 08:04:49;;;;;;;0.65;0.35;;;10.40;83.10;;;;;;4958539;29;20031;-70
2022/11/07 08:07:24;;;;;;;0.10;0.10;;;10.50;84.00;;;;;;4958485;29;20023;-70
2022/11/07 08:13:12;;;;;;;0.10;0.10;;;10.50;84.70;;;;;;4958859;29;20030;-70
2022/11/07 08:15:46;;;;;;;0.10;0.10;;;10.60;82.80;;;;;;4958335;29;20027;-70
2022/11/07 08:18:22;;;;;;;0.98;0.22;;;10.60;81.20;;;;;;4958380;29;20023;-70
2022/11/07 08:24:22;;;;;;;0.10;0.10;;;10.70;81.80;;;;;;4958021;28;20145;-70
2022/11/07 08:26:57;;;;;;;0.10;0.10;;;10.70;82.00;;;;;;4958132;29;20028;-70
2022/11/07 08:29:32;;;;;;;0.77;0.47;;;10.80;81.40;;;;;;4958213;28;20055;-70
2022/11/07 08:31:57;;;;;;;0.32;0.32;;;10.90;81.90;;;;;;4958223;29;20422;-70
2022/11/07 08:35:16;;;;;;;0.10;0.10;;;11.00;79.70;;;;;;4958290;29;20159;-70
2022/11/07 08:37:52;;;;;;;0.13;0.13;;;11.00;79.20;;;;;;4958443;29;20308;-70
2022/11/07 08:40:18;;;;;;;1.77;0.10;;;11.00;80.80;;;;;;4958113;28;20039;-70
2022/11/07 08:42:59;;;;;;;0.17;0.13;;;11.00;80.90;;;;;;4958187;29;20031;-70
2022/11/07 08:45:34;;;;;;;0.00;0.00;;;11.10;80.60;;;;;;4958643;28;20031;-70
2022/11/07 08:48:09;;;;;;;0.10;0.10;;;11.20;79.50;;;;;;4944887;29;20034;-70
2022/11/07 08:54:05;;;;;;;0.00;0.00;;;11.30;80.30;;;;;;4962255;29;20050;-70
2022/11/07 08:56:40;;;;;;;0.17;0.17;;;11.50;80.20;;;;;;4961881;29;20024;-70
2022/11/07 09:02:28;;;;;;;0.82;0.30;;;12.00;78.10;;;;;;4962142;29;20099;-70
2022/11/07 09:05:03;;;;;;;0.15;0.10;;;12.50;76.40;;;;;;4961808;29;20377;-70
2022/11/07 09:07:38;;;;;;;0.10;0.10;;;12.90;74.90;;;;;;4944684;29;20491;-70
2022/11/07 09:13:26;;;;;;;0.10;0.10;;;13.60;72.90;;;;;;4961926;29;20030;-70
2022/11/07 09:16:04;;;;;;;0.10;0.10;;;14.40;70.80;;;;;;4944472;29;20031;-70
2022/11/07 09:18:39;;;;;;;0.43;0.25;;;15.20;69.90;;;;;;4961322;29;20031;-70
2022/11/07 09:21:05;;;;;;;0.77;0.17;;;15.90;67.80;;;;;;4961156;28;20078;-70
2022/11/07 09:24:39;;;;;;;0.45;0.25;;;16.60;65.90;;;;;;4960963;29;20055;-69
2022/11/07 09:28:04;;;;;;;0.20;0.10;;;17.20;64.90;;;;;;4961250;29;20027;-69
2022/11/07 09:30:31;;;;;;;0.28;0.20;;;17.90;64.00;;;;;;4961153;28;20063;-68
2022/11/07 09:33:15;;;;;;;0.10;0.10;;;18.30;63.40;;;;;;4944254;29;20031;-68
2022/11/07 09:35:49;;;;;;;0.15;0.15;;;18.70;62.50;;;;;;4961139;29;20035;-68
2022/11/07 09:38:24;;;;;;;0.20;0.10;;;19.00;60.60;;;;;;4961243;29;20082;-68
2022/11/07 09:45:01;;;;;;;0.60;0.43;;;19.50;59.50;;;;;;4961339;29;20038;-69
2022/11/07 09:48:07;;;;;;;0.55;0.10;;;19.60;60.10;;;;;;4902137;29;20492;-69
2022/11/07 09:54:14;;;;;;;1.65;0.60;;;19.70;59.20;;;;;;4902124;29;20059;-69
2022/11/07 09:56:49;;;;;;;;;;;20.10;60.10;;;;;;4960487;28;20086;-69
2022/11/07 10:02:42;;;;;;;0.10;0.00;;;20.40;59.80;;;;;;4961080;29;20043;-69
2022/11/07 10:06:07;;;;;;;0.10;0.10;;;20.40;58.90;;;;;;4960570;29;20332;-69
2022/11/07 10:08:44;;;;;;;0.20;0.10;;;20.40;59.00;;;;;;4886066;29;20033;-69
2022/11/07 10:11:29;;;;;;;0.10;0.10;;;20.70;59.90;;;;;;4901643;29;20028;-69
2022/11/07 10:14:41;;;;;;;0.43;0.20;;;20.90;58.70;;;;;;4901654;29;20084;-68
2022/11/07 10:17:51;;;;;;;0.20;0.10;;;21.10;57.30;;;;;;4885880;29;20505;-68
2022/11/07 10:20:54;;;;;;;0.20;0.10;;;21.10;57.50;;;;;;4901517;29;20040;-68
2022/11/07 10:23:47;;;;;;;0.00;0.00;;;21.00;58.20;;;;;;4901103;29;20096;-69
2022/11/07 10:26:24;;;;;;;0.10;0.05;;;21.00;59.30;;;;;;4901477;29;20044;-69
2022/11/07 10:29:49;;;;;;;0.10;0.10;;;21.00;56.70;;;;;;4901294;29;20051;-69
2022/11/07 10:32:55;;;;;;;0.47;0.22;;;20.80;58.40;;;;;;4830059;29;20057;-69
2022/11/07 10:36:21;;;;;;;0.07;0.00;;;20.40;57.30;;;;;;4845535;29;20037;-68
2022/11/07 10:43:20;;;;;;;1.08;0.63;;;20.30;58.80;;;;;;4856544;29;20053;-68
2022/11/07 10:46:46;;;;;;;2.92;0.55;;;20.60;58.90;;;;;;4863988;29;20382;-68
2022/11/07 10:50:10;;;;;;;0.35;0.28;;;20.80;59.50;;;;;;4863605;29;20050;-69
2022/11/07 10:53:26;;;;;;;0.25;0.10;;;20.90;58.40;;;;;;4863716;29;20164;-69
2022/11/07 10:56:52;;;;;;;0.40;0.20;;;20.50;58.40;;;;;;4863693;29;20035;-69
2022/11/07 11:00:08;;;;;;;0.45;0.20;;;20.40;59.20;;;;;;4863148;29;20378;-69
2022/11/07 11:03:34;;;;;;;0.20;0.20;;;20.50;59.40;;;;;;4863540;29;20041;-69
2022/11/07 11:06:29;;;;;;;0.30;0.20;;;20.70;60.20;;;;;;4863535;29;20048;-69
2022/11/07 11:09:45;;;;;;;0.55;0.20;;;20.60;57.30;;;;;;4959199;28;20320;-69
2022/11/07 11:12:25;;;;;;;0.20;0.20;;;20.60;61.10;;;;;;4954536;29;20047;-69
2022/11/07 11:15:29;;;;;;;0.17;0.13;;;20.80;59.50;;;;;;4959409;29;20373;-69
2022/11/07 11:18:16;;;;;;;0.30;0.10;;;20.60;59.60;;;;;;4950421;29;20065;-68
2022/11/07 11:28:32;;;;;;;0.10;0.10;;;20.20;59.20;;;;;;4900567;29;20104;-68
2022/11/07 11:34:52;;;;;;;0.22;0.10;;;20.40;59.40;;;;;;4900405;29;20055;-68
2022/11/07 11:37:27;;;;;;;0.20;0.10;;;20.10;61.00;;;;;;4884405;29;20057;-68
2022/11/07 11:40:20;;;;;;;;;;;20.00;59.80;;;;;;4900477;29;20060;-69
2022/11/07 11:43:24;;;;;;;0.17;0.17;;;19.80;60.10;;;;;;4900189;29;20289;-69
2022/11/07 11:46:35;;;;;;;0.30;0.10;;;19.60;60.20;;;;;;4899934;29;20064;-69
2022/11/07 11:49:22;;;;;;;0.38;0.17;;;19.60;61.50;;;;;;4899766;29;20032;-68
2022/11/07 11:52:08;;;;;;;0.35;0.20;;;19.30;61.60;;;;;;4925483;29;20126;-68
2022/11/07 11:54:45;;;;;;;0.40;0.20;;;19.30;63.90;;;;;;4958706;29;20036;-68
2022/11/07 11:58:08;;;;;;;0.30;0.10;;;19.40;64.40;;;;;;4958765;29;20027;-68
2022/11/07 12:04:53;;;;;;;0.00;0.00;;;19.30;65.70;;;;;;4913437;29;20114;-69
2022/11/07 12:08:03;;;;;;;0.15;0.10;;;19.20;62.90;;;;;;4941396;29;20037;-68
2022/11/07 12:14:30;;;;;;;0.20;0.20;;;18.70;66.10;;;;;;4958749;29;20462;-68
2022/11/07 12:17:37;;;;;;;0.60;0.30;;;18.40;62.90;;;;;;4958397;29;20070;-68
2022/11/07 12:20:31;;;;;;;0.30;0.10;;;18.20;65.50;;;;;;4957647;28;20379;-68
2022/11/07 12:23:32;;;;;;;0.55;0.43;;;18.10;66.60;;;;;;4941287;29;20038;-68
2022/11/07 12:26:57;;;;;;;0.60;0.40;;;18.10;68.50;;;;;;4939199;29;20530;-68
2022/11/07 12:33:31;;;;;;;0.17;0.17;;;17.60;67.00;;;;;;4939250;29;20079;-68
2022/11/07 12:36:33;;;;;;;1.85;0.63;;;17.40;69.00;;;;;;4938877;29;20043;-68
2022/11/07 12:39:45;;;;;;;0.98;0.40;;;17.30;67.80;;;;;;4938990;29;20028;-68
2022/11/07 12:42:53;;;;;;;0.13;0.10;;;17.10;70.10;;;;;;4939044;29;20055;-68
2022/11/07 12:46:12;;;;;;;0.20;0.17;;;16.80;70.20;;;;;;4880659;29;20041;-68
2022/11/07 12:52:36;;;;;;;0.57;0.10;;;16.40;68.20;;;;;;4881034;29;20120;-68
2022/11/07 12:55:41;;;;;;;0.30;0.20;;;16.30;73.70;;;;;;4880530;29;20102;-68
2022/11/07 12:58:39;;;;;;;0.00;0.00;;;16.20;75.40;;;;;;4880406;29;20029;-68
2022/11/07 13:01:06;;;;;;;0.20;0.20;;;16.20;74.20;;;;;;4880428;29;20041;-68
2022/11/07 13:04:03;;;;;;;0.25;0.20;;;16.00;76.50;;;;;;4930364;29;20099;-68
2022/11/07 13:06:56;;;;;;;0.20;0.20;;;15.90;71.30;;;;;;4938488;29;20429;-68
2022/11/07 13:13:23;;;;;;;0.28;0.17;;;15.70;74.30;;;;;;4938875;29;20034;-68
2022/11/07 13:16:24;;;;;;;0.43;0.40;;;15.70;74.80;;;;;;4921527;29;20062;-68
2022/11/07 13:22:44;;;;;;;0.10;0.10;;;15.60;74.30;;;;;;4880749;29;20406;-68
2022/11/07 13:25:25;;;;;;;0.10;0.10;;;15.50;74.10;;;;;;4893415;29;20084;-68
2022/11/07 13:28:52;;;;;;;0.40;0.38;;;15.50;74.50;;;;;;4899040;29;20036;-68
2022/11/07 13:34:56;;;;;;;0.77;0.57;;;15.20;73.60;;;;;;4828273;29;20037;-68
2022/11/07 13:40:36;;;;;;;0.00;0.00;;;15.10;76.60;;;;;;4961113;28;20451;-68
2022/11/07 13:43:39;;;;;;;0.10;0.10;;;15.00;75.30;;;;;;4961183;29;20039;-68
2022/11/07 13:46:29;;;;;;;0.20;0.13;;;14.90;76.50;;;;;;4960880;29;20031;-68
2022/11/07 13:49:10;;;;;;;0.90;0.22;;;14.90;75.90;;;;;;4960999;29;20027;-68
2022/11/07 13:51:45;;;;;;;0.20;0.20;;;14.80;75.30;;;;;;4960837;29;20031;-68
2022/11/07 13:54:38;;;;;;;0.52;0.17;;;14.90;75.80;;;;;;4960699;29;20043;-68
2022/11/07 13:57:37;;;;;;;0.30;0.20;;;14.80;76.10;;;;;;4960824;29;20432;-68
2022/11/07 14:03:28;;;;;;;0.20;0.20;;;14.70;76.50;;;;;;4961090;29;20078;-68
2022/11/07 14:06:15;;;;;;;0.20;0.10;;;14.50;78.70;;;;;;4960640;29;20094;-68
2022/11/07 14:08:50;;;;;;;0.13;0.10;;;14.40;77.30;;;;;;4960630;29;20036;-68
2022/11/07 14:14:53;;;;;;;0.28;0.20;;;14.30;78.10;;;;;;4960787;29;20030;-68
2022/11/07 14:17:32;;;;;;;0.10;0.10;;;14.30;79.70;;;;;;4960326;29;20034;-68
2022/11/07 14:20:24;;;;;;;0.30;0.25;;;14.20;78.00;;;;;;4960350;28;20032;-68
2022/11/07 14:23:01;;;;;;;0.00;0.00;;;14.20;77.20;;;;;;4960485;29;20375;-68
2022/11/07 14:26:29;;;;;;;0.25;0.13;;;14.20;78.80;;;;;;4959574;28;20448;-68
2022/11/07 14:32:29;;;;;;;0.00;0.00;;;14.10;79.20;;;;;;4960462;29;20344;-68
2022/11/07 14:35:07;;;;;;;0.15;0.13;;;14.00;78.90;;;;;;4960214;29;20036;-68
2022/11/07 14:37:42;;;;;;;0.28;0.10;;;14.00;78.70;;;;;;4943116;29;20398;-68
2022/11/07 14:43:30;;;;;;;0.20;0.10;;;13.90;79.40;;;;;;4959720;28;20082;-68
2022/11/07 14:46:21;;;;;;;0.05;0.05;;;13.70;80.50;;;;;;4943152;29;20039;-68
2022/11/07 14:48:56;;;;;;;1.20;0.32;;;13.60;80.70;;;;;;4959973;29;20020;-68
2022/11/07 14:52:18;;;;;;;0.22;0.17;;;13.50;80.80;;;;;;4960012;28;20356;-68
2022/11/07 14:55:04;;;;;;;0.20;0.20;;;13.50;80.20;;;;;;4959682;29;20034;-68
2022/11/07 14:57:39;;;;;;;0.20;0.20;;;13.50;82.80;;;;;;4959744;29;20070;-68
2022/11/07 15:03:32;;;;;;;0.22;0.20;;;13.40;83.80;;;;;;4959998;29;20031;-68
2022/11/07 15:06:32;;;;;;;0.47;0.30;;;13.30;84.20;;;;;;4959524;29;20034;-68
2022/11/07 15:09:11;;;;;;;0.10;0.05;;;13.20;86.80;;;;;;4942506;29;20035;-68
2022/11/07 15:12:06;;;;;;;0.13;0.10;;;13.10;86.60;;;;;;4959448;29;20315;-68
2022/11/07 15:14:44;;;;;;;0.10;0.10;;;13.00;87.70;;;;;;4959355;29;20094;-68
2022/11/07 15:17:22;;;;;;;0.80;0.80;;;12.80;87.20;;;;;;4959259;29;20068;-68
2022/11/07 15:23:12;;;;;;;0.65;0.63;;;12.50;86.00;;;;;;4959393;29;20025;-69
2022/11/07 15:26:06;;;;;;;0.10;0.10;;;12.40;86.60;;;;;;4958772;28;20113;-70
2022/11/07 15:28:52;;;;;;;0.10;0.10;;;12.10;88.00;;;;;;4959248;29;20101;-70
2022/11/07 15:34:56;;;;;;;0.28;0.20;;;11.80;89.00;;;;;;4959395;29;20418;-70
2022/11/07 15:37:31;;;;;;;0.30;0.30;;;11.60;89.50;;;;;;4959071;29;20024;-70
2022/11/07 15:43:19;;;;;;;0.32;0.10;;;11.20;91.40;;;;;;4959333;29;20085;-70
2022/11/07 15:46:11;;;;;;;0.13;0.10;;;11.00;92.40;;;;;;4926194;29;20046;-70
2022/11/07 15:48:46;;;;;;;0.38;0.20;;;10.90;93.00;;;;;;4958813;29;20027;-70
2022/11/07 15:51:13;;;;;;;0.38;0.38;;;10.70;93.30;;;;;;4958679;28;20101;-70
2022/11/07 15:53:51;;;;;;;0.10;0.10;;;10.70;92.70;;;;;;4958799;29;20027;-70
2022/11/07 15:56:26;;;;;;;0.32;0.28;;;10.70;92.50;;;;;;4957789;28;20408;-70
2022/11/07 15:59:02;;;;;;;0.30;0.20;;;10.60;92.20;;;;;;4958852;29;20420;-70
2022/11/07 16:01:28;;;;;;;;;;;10.50;92.60;;;;;;4958988;29;20098;-70
2022/11/07 16:04:13;;;;;;;0.10;0.10;;;10.30;92.50;;;;;;4958754;29;20009;-70
2022/11/07 16:06:47;;;;;;;0.10;0.10;;;10.20;93.50;;;;;;4958472;29;20046;-70
2022/11/07 16:12:49;;;;;;;0.10;0.10;;;10.00;93.20;;;;;;4958882;29;20042;-70
2022/11/07 16:15:25;;;;;;;0.10;0.10;;;9.90;93.90;;;;;;4958388;29;20023;-70
2022/11/07 16:17:59;;;;;;;1.75;0.45;;;9.90;94.70;;;;;;4958476;29;20415;-70
2022/11/07 16:23:59;;;;;;;0.28;0.20;;;9.80;94.20;;;;;;4958693;29;20096;-70
2022/11/07 16:26:38;;;;;;;0.60;0.22;;;9.80;93.70;;;;;;4958074;29;20055;-70
2022/11/07 16:29:14;;;;;;;0.30;0.20;;;9.80;93.70;;;;;;4958268;28;20031;-70
2022/11/07 16:31:40;;;;;;;0.28;0.22;;;9.70;94.40;;;;;;4941209;29;20032;-70
2022/11/07 16:34:18;;;;;;;0.50;0.40;;;9.70;94.40;;;;;;4958067;29;20438;-70
2022/11/07 16:36:53;;;;;;;0.77;0.43;;;9.70;94.60;;;;;;4958123;29;20039;-70
2022/11/07 16:42:41;;;;;;;0.95;0.45;;;9.70;93.30;;;;;;4958432;29;20324;-70
2022/11/07 16:45:18;;;;;;;0.00;0.00;;;9.80;91.80;;;;;;4958055;29;20364;-70
2022/11/07 16:47:53;;;;;;;0.40;0.35;;;9.90;90.90;;;;;;4958134;29;20035;-70
2022/11/07 16:50:18;;;;;;;0.63;0.43;;;10.00;91.80;;;;;;4958121;28;20066;-70
2022/11/07 16:52:53;;;;;;;0.50;0.38;;;10.00;91.30;;;;;;4958106;29;20381;-70
2022/11/07 16:55:31;;;;;;;0.75;0.32;;;10.10;90.60;;;;;;4958160;29;20015;-70
2022/11/07 16:58:27;;;;;;;0.17;0.17;;;10.10;91.90;;;;;;4958047;29;20380;-70
2022/11/07 17:04:24;;;;;;;0.00;0.00;;;9.90;90.80;;;;;;4958317;29;20067;-70
2022/11/07 17:07:02;;;;;;;0.00;0.00;;;9.80;92.00;;;;;;4959322;28;20118;-70
2022/11/07 17:12:50;;;;;;;0.20;0.10;;;9.80;91.40;;;;;;4961944;29;20066;-70
2022/11/07 17:15:24;;;;;;;0.45;0.20;;;9.90;91.20;;;;;;4961424;29;20027;-70
2022/11/07 17:17:59;;;;;;;0.15;0.10;;;9.90;90.30;;;;;;4961673;29;20067;-70